Time;durP1;ratioP1;P1;durP2;ratioP2;P2;SDS_P1;SDS_P2;PMS_P1;PMS_P2;Temp;Humidity;BMP_temperature;BMP_pressure;BME280_temperature;BME280_humidity;BME280_pressure;Samples;Min_cycle;Max_cycle;Signal;HPM_P1;HPM_P2
2022/10/13 00:00:11;;;;;;;;;24.00;21.33;;;;;16.30;59.27;101280.84;5057546;28;46506;-59
2022/10/13 00:02:36;;;;;;;;;23.33;21.67;;;;;16.27;59.52;101281.84;5057761;28;45408;-59
2022/10/13 00:05:01;;;;;;;;;23.00;20.67;;;;;16.28;58.78;101270.31;5057714;28;45664;-58
2022/10/13 00:07:27;;;;;;;;;20.33;20.00;;;;;16.30;59.53;101273.72;5057257;28;46073;-59
2022/10/13 00:09:52;;;;;;;;;20.33;20.33;;;;;16.28;59.29;101274.72;5057476;28;45363;-59
2022/10/13 00:12:18;;;;;;;;;25.00;23.33;;;;;16.30;59.52;101267.56;5057458;28;45453;-59
2022/10/13 00:14:43;;;;;;;;;20.33;20.33;;;;;16.29;59.53;101268.50;5057570;28;45422;-59
2022/10/13 00:17:09;;;;;;;;;21.67;19.67;;;;;16.26;59.13;101266.00;5057191;28;45490;-58
2022/10/13 00:19:35;;;;;;;;;18.33;18.33;;;;;16.26;59.83;101273.97;5057076;28;46501;-59
2022/10/13 00:22:00;;;;;;;;;23.67;21.00;;;;;16.25;59.14;101274.88;5057249;28;45475;-59
2022/10/13 00:24:25;;;;;;;;;20.00;20.00;;;;;16.26;59.35;101276.63;5057189;28;45657;-58
2022/10/13 00:26:51;;;;;;;;;17.67;17.00;;;;;16.24;59.96;101281.16;5056085;28;56347;-59
2022/10/13 00:29:17;;;;;;;;;18.67;17.33;;;;;16.18;60.09;101263.72;5057307;28;45380;-59
2022/10/13 00:31:42;;;;;;;;;19.67;18.67;;;;;16.21;60.06;101268.88;5057363;28;45435;-59
2022/10/13 00:34:07;;;;;;;;;21.67;20.00;;;;;16.20;59.59;101267.16;5057009;28;46707;-59
2022/10/13 00:36:33;;;;;;;;;24.67;22.00;;;;;16.22;58.96;101261.78;5056801;28;46097;-59
2022/10/13 00:38:58;;;;;;;;;19.67;18.67;;;;;16.23;59.00;101248.44;5056909;28;45371;-59
2022/10/13 00:41:24;;;;;;;;;17.67;17.00;;;;;16.24;59.92;101242.19;5056993;28;45478;-59
2022/10/13 00:44:23;;;;;;;;;26.00;19.67;;;;;16.25;59.66;101230.63;5057007;28;45478;-59
2022/10/13 00:46:48;;;;;;;;;23.00;21.00;;;;;16.23;59.71;101235.16;5056791;28;45488;-59
2022/10/13 00:49:13;;;;;;;;;22.67;21.00;;;;;16.22;60.07;101232.56;5056718;28;45473;-59
2022/10/13 00:51:45;;;;;;;;;22.33;19.67;;;;;16.21;59.89;101237.03;5057384;28;45564;-59
2022/10/13 00:54:14;;;;;;;;;22.33;21.67;;;;;16.19;59.44;101235.38;5056714;28;45444;-59
2022/10/13 00:56:41;;;;;;;;;27.33;21.67;;;;;16.18;60.17;101238.97;5056525;28;45431;-59
2022/10/13 00:59:22;;;;;;;;;25.00;21.33;;;;;16.11;60.16;101231.28;5056443;28;45420;-59
2022/10/13 01:01:49;;;;;;;;;20.33;20.33;;;;;16.08;59.87;101228.78;5056536;28;45467;-59
2022/10/13 01:04:16;;;;;;;;;25.00;23.00;;;;;16.07;60.28;101234.19;5056568;28;45420;-59
2022/10/13 01:06:42;;;;;;;;;25.00;22.33;;;;;16.06;61.10;101228.00;5056414;28;45319;-59
2022/10/13 01:09:07;;;;;;;;;23.00;20.00;;;;;16.07;59.70;101221.78;5056306;28;45442;-59
2022/10/13 01:11:56;;;;;;;;;20.67;20.00;;;;;16.11;60.69;101244.56;5056741;28;45888;-59
2022/10/13 01:14:35;;;;;;;;;22.33;20.00;;;;;16.12;60.51;101237.50;5042684;28;45499;-59
2022/10/13 01:17:22;;;;;;;;;18.33;18.33;;;;;16.10;60.33;101242.84;5056280;28;46261;-59
2022/10/13 01:19:50;;;;;;;;;20.00;20.00;;;;;16.11;60.84;101231.28;5056176;28;45337;-59
2022/10/13 01:22:51;;;;;;;;;20.67;19.00;;;;;16.11;61.21;101220.69;5056119;28;45501;-59
2022/10/13 01:25:41;;;;;;;;;20.00;19.33;;;;;16.13;60.13;101233.88;5056488;28;45367;-58
2022/10/13 01:28:48;;;;;;;;;18.00;17.00;;;;;16.15;60.78;101239.09;5055900;28;45531;-59
2022/10/13 01:31:23;;;;;;;;;24.00;20.33;;;;;16.12;61.07;101230.38;5056113;28;45493;-59
2022/10/13 01:34:02;;;;;;;;;20.33;19.33;;;;;16.12;60.66;101219.75;5056405;28;45376;-59
2022/10/13 01:37:14;;;;;;;;;20.67;18.00;;;;;16.10;60.29;101212.81;5056560;28;45459;-59
2022/10/13 01:39:59;;;;;;;;;19.33;18.00;;;;;16.09;60.50;101219.91;4974038;28;46366;-59
2022/10/13 01:42:35;;;;;;;;;21.33;20.00;;;;;16.09;60.42;101216.38;4974002;28;45437;-59
2022/10/13 01:45:02;;;;;;;;;22.33;21.33;;;;;16.06;60.91;101219.19;5017357;28;45444;-59
2022/10/13 01:47:30;;;;;;;;;23.00;21.33;;;;;16.00;60.75;101223.00;5055553;28;45382;-59
2022/10/13 01:49:56;;;;;;;;;20.00;18.33;;;;;15.98;60.72;101213.38;5055302;28;45538;-59
2022/10/13 01:52:29;;;;;;;;;25.00;23.00;;;;;16.00;60.91;101224.78;5038015;28;45420;-59
2022/10/13 01:54:55;;;;;;;;;22.00;21.00;;;;;15.98;61.57;101231.97;5055849;28;45502;-60
2022/10/13 01:57:36;;;;;;;;;21.67;20.00;;;;;15.96;61.77;101224.09;5055958;28;45489;-59
2022/10/13 02:00:12;;;;;;;;;24.33;22.00;;;;;15.95;61.78;101211.75;5055735;28;45509;-59
2022/10/13 02:03:13;;;;;;;;;23.33;22.00;;;;;15.97;61.53;101209.88;5055802;28;45383;-59
2022/10/13 02:05:52;;;;;;;;;20.33;19.00;;;;;15.98;61.45;101216.03;5055851;28;45470;-59
2022/10/13 02:08:51;;;;;;;;;20.67;20.67;;;;;15.97;61.56;101215.19;5055739;28;45417;-58
2022/10/13 02:11:20;;;;;;;;;23.67;20.67;;;;;15.99;61.92;101208.03;5036769;28;47185;-58
2022/10/13 02:14:01;;;;;;;;;24.33;20.33;;;;;15.98;62.15;101202.78;5037073;28;45399;-59
2022/10/13 02:16:30;;;;;;;;;23.33;19.00;;;;;15.95;62.02;101197.63;5055724;28;45426;-58
2022/10/13 02:18:57;;;;;;;;;24.00;22.33;;;;;15.97;61.78;101207.22;5055763;28;45372;-59
2022/10/13 02:21:23;;;;;;;;;19.67;19.67;;;;;16.01;62.05;101199.97;5055073;28;46377;-59
2022/10/13 02:23:48;;;;;;;;;19.00;18.67;;;;;16.02;61.98;101201.72;5055665;28;45568;-59
2022/10/13 02:26:14;;;;;;;;;20.33;19.00;;;;;16.01;61.50;101190.25;5055698;28;45415;-58
2022/10/13 02:28:40;;;;;;;;;18.00;18.00;;;;;16.01;61.95;101182.28;5055666;28;45665;-59
2022/10/13 02:31:08;;;;;;;;;17.33;17.00;;;;;16.02;62.17;101184.00;5055343;28;46665;-59
2022/10/13 02:33:33;;;;;;;;;19.33;19.33;;;;;16.04;61.66;101183.91;5055090;28;46191;-59
2022/10/13 02:35:58;;;;;;;;;19.00;18.67;;;;;16.02;61.20;101189.28;5055362;28;45459;-59
2022/10/13 02:38:24;;;;;;;;;18.33;18.00;;;;;16.01;61.82;101182.28;5055213;28;45454;-59
2022/10/13 02:40:49;;;;;;;;;18.33;18.00;;;;;16.01;62.04;101174.31;5054823;28;49318;-59
2022/10/13 02:43:16;;;;;;;;;17.33;15.00;;;;;16.01;62.08;101163.72;5055364;28;45352;-59
2022/10/13 02:45:41;;;;;;;;;11.33;11.33;;;;;16.02;62.27;101143.34;5037295;28;45338;-59
2022/10/13 02:48:07;;;;;;;;;16.67;13.33;;;;;16.04;62.09;101144.09;5055093;28;45357;-59
2022/10/13 02:50:32;;;;;;;;;17.00;15.67;;;;;16.04;62.51;101138.78;5055201;28;45385;-59
2022/10/13 02:52:58;;;;;;;;;17.67;17.67;;;;;16.03;61.39;101139.75;5055640;28;45408;-59
2022/10/13 02:55:24;;;;;;;;;17.33;15.67;;;;;16.03;61.54;101137.94;5054788;28;45411;-59
2022/10/13 02:57:49;;;;;;;;;19.00;16.00;;;;;16.02;61.58;101144.19;5054705;28;45593;-59
2022/10/13 03:00:15;;;;;;;;;17.33;17.33;;;;;16.03;61.51;101156.50;5056852;28;46551;-59
2022/10/13 03:02:41;;;;;;;;;17.00;17.00;;;;;16.02;62.53;101152.16;5057777;28;45481;-59
2022/10/13 03:05:07;;;;;;;;;15.67;13.67;;;;;16.00;61.46;101161.97;5058617;28;45497;-59
2022/10/13 03:07:32;;;;;;;;;13.00;13.00;;;;;15.97;62.45;101162.13;5058504;28;45512;-60
2022/10/13 03:09:58;;;;;;;;;22.00;19.00;;;;;15.99;62.37;101164.72;5058147;28;49684;-59
2022/10/13 03:12:23;;;;;;;;;16.67;13.67;;;;;15.97;62.71;101155.97;5058335;28;45529;-59
2022/10/13 03:14:48;;;;;;;;;19.00;16.00;;;;;15.95;62.11;101150.72;5058426;28;45430;-59
2022/10/13 03:17:14;;;;;;;;;18.33;17.33;;;;;15.92;62.41;101158.84;5058313;28;45474;-59
2022/10/13 03:19:39;;;;;;;;;15.00;14.33;;;;;15.93;62.45;101149.06;5058143;28;45465;-59
2022/10/13 03:22:04;;;;;;;;;13.33;12.67;;;;;15.95;62.96;101149.88;5057535;28;48752;-59
2022/10/13 03:24:30;;;;;;;;;16.00;16.00;;;;;15.97;62.84;101140.91;5058430;28;45584;-59
2022/10/13 03:26:55;;;;;;;;;18.67;16.00;;;;;15.99;62.85;101132.88;5040221;28;45355;-59
2022/10/13 03:29:21;;;;;;;;;18.33;16.00;;;;;15.97;63.02;101118.81;5057981;28;46243;-59
2022/10/13 03:31:47;;;;;;;;;18.33;16.00;;;;;15.94;63.15;101117.19;5058157;28;45510;-58
2022/10/13 03:34:15;;;;;;;;;19.67;19.67;;;;;15.91;62.70;101112.03;5057988;28;45372;-59
2022/10/13 03:36:40;;;;;;;;;20.00;19.00;;;;;15.92;63.02;101121.69;5058117;28;45450;-59
2022/10/13 03:39:06;;;;;;;;;16.67;16.67;;;;;15.90;62.57;101129.75;5057904;28;46232;-58
2022/10/13 03:41:31;;;;;;;;;17.33;17.33;;;;;15.88;63.00;101134.25;5057786;28;45404;-59
2022/10/13 03:43:56;;;;;;;;;16.33;14.67;;;;;15.86;62.73;101127.31;5058036;28;45463;-59
2022/10/13 03:46:25;;;;;;;;;16.00;16.00;;;;;15.90;62.41;101123.56;5057926;28;45418;-58
2022/10/13 03:48:50;;;;;;;;;14.33;14.33;;;;;15.92;62.89;101116.38;5057716;28;45445;-58
2022/10/13 03:51:18;;;;;;;;;17.00;15.00;;;;;15.90;62.68;101113.84;5057738;28;45388;-59
2022/10/13 03:53:45;;;;;;;;;18.00;18.00;;;;;15.89;63.31;101111.25;5058505;28;45420;-59
2022/10/13 03:56:16;;;;;;;;;21.00;19.67;;;;;15.88;62.37;101098.94;5057749;28;45496;-58
2022/10/13 03:58:42;;;;;;;;;19.00;16.67;;;;;15.84;63.68;101089.38;5057624;28;46061;-58
2022/10/13 04:01:08;;;;;;;;;17.00;15.67;;;;;15.82;62.53;101096.56;5057605;28;45336;-59
2022/10/13 04:03:33;;;;;;;;;20.33;19.00;;;;;15.79;62.28;101102.88;5057714;28;45494;-58
2022/10/13 04:06:00;;;;;;;;;19.00;16.33;;;;;15.75;63.22;101103.97;5057635;28;45601;-59
2022/10/13 04:08:27;;;;;;;;;15.67;15.67;;;;;15.73;63.70;101103.19;5057399;28;46184;-58
2022/10/13 04:11:10;;;;;;;;;16.00;15.67;;;;;15.74;62.93;101098.72;5056643;28;45422;-59
2022/10/13 04:13:35;;;;;;;;;14.33;14.33;;;;;15.73;63.04;101097.88;5057419;28;45466;-58
2022/10/13 04:16:07;;;;;;;;;15.00;15.00;;;;;15.73;63.37;101084.63;5057375;28;45428;-58
2022/10/13 04:18:33;;;;;;;;;18.67;16.67;;;;;15.74;62.99;101086.31;5057396;28;46329;-59
2022/10/13 04:20:58;;;;;;;;;16.67;15.00;;;;;15.75;62.63;101087.19;5057246;28;45479;-58
2022/10/13 04:23:24;;;;;;;;;12.67;12.67;;;;;15.76;63.58;101102.16;5057087;28;45374;-58
2022/10/13 04:25:49;;;;;;;;;14.67;14.67;;;;;15.74;63.27;101098.72;5057370;28;45385;-58
2022/10/13 04:28:14;;;;;;;;;18.33;18.33;;;;;15.76;62.89;101096.88;5056956;28;46493;-58
2022/10/13 04:30:40;;;;;;;;;13.67;13.67;;;;;15.75;62.94;101098.66;5057045;28;45466;-59
2022/10/13 04:33:06;;;;;;;;;17.33;17.33;;;;;15.78;63.50;101102.97;5056283;28;45463;-58
2022/10/13 04:35:31;;;;;;;;;18.67;17.33;;;;;15.78;63.41;101103.81;5056983;28;45498;-58
2022/10/13 04:37:57;;;;;;;;;16.67;16.00;;;;;15.78;62.64;101103.81;5056905;28;46072;-58
2022/10/13 04:40:23;;;;;;;;;15.00;13.67;;;;;15.78;62.64;101101.16;5056857;28;45476;-58
2022/10/13 04:42:48;;;;;;;;;15.33;14.33;;;;;15.78;62.81;101106.47;5057038;28;45462;-58
2022/10/13 04:45:13;;;;;;;;;12.33;12.33;;;;;15.76;62.52;101110.13;5056810;28;45493;-58
2022/10/13 04:47:39;;;;;;;;;15.00;12.00;;;;;15.78;63.44;101121.53;5056769;28;46655;-59
2022/10/13 04:50:04;;;;;;;;;16.00;15.00;;;;;15.77;62.95;101111.84;5056710;28;45480;-58
2022/10/13 04:52:30;;;;;;;;;18.00;16.00;;;;;15.78;63.60;101105.63;5057411;28;45434;-58
2022/10/13 04:54:55;;;;;;;;;17.33;16.00;;;;;15.77;62.70;101102.09;5056637;28;45375;-58
2022/10/13 04:57:20;;;;;;;;;14.33;14.33;;;;;15.78;62.94;101098.50;5056356;28;45446;-58
2022/10/13 04:59:46;;;;;;;;;16.00;15.67;;;;;15.81;62.23;101102.81;5056725;28;45386;-58
2022/10/13 05:02:11;;;;;;;;;14.33;14.33;;;;;15.82;63.19;101108.03;5037742;28;45619;-58
2022/10/13 05:04:37;;;;;;;;;13.00;12.00;;;;;15.82;63.10;101094.75;5056507;28;45368;-59
2022/10/13 05:07:02;;;;;;;;;15.00;15.00;;;;;15.82;62.26;101088.59;5056609;28;46329;-59
2022/10/13 05:09:27;;;;;;;;;13.00;13.00;;;;;15.80;62.87;101088.69;5052428;28;45511;-58
2022/10/13 05:11:56;;;;;;;;;13.67;12.00;;;;;15.78;62.51;101082.59;5052630;28;45380;-58
2022/10/13 05:14:22;;;;;;;;;16.00;16.00;;;;;15.79;62.79;101084.31;5056611;28;45432;-58
2022/10/13 05:16:47;;;;;;;;;14.33;14.33;;;;;15.80;62.63;101085.19;5056369;28;45383;-58
2022/10/13 05:19:13;;;;;;;;;15.67;14.00;;;;;15.80;63.83;101090.50;5056006;28;45449;-58
2022/10/13 05:21:38;;;;;;;;;14.00;14.00;;;;;15.82;63.14;101088.59;5056136;28;45496;-58
2022/10/13 05:24:05;;;;;;;;;16.67;16.33;;;;;15.83;62.85;101095.63;5055372;28;45421;-58
2022/10/13 05:26:34;;;;;;;;;16.67;16.67;;;;;15.81;62.84;101092.19;5056154;28;45325;-58
2022/10/13 05:29:01;;;;;;;;;15.00;14.00;;;;;15.80;63.01;101091.34;5056163;28;45426;-59
2022/10/13 05:31:28;;;;;;;;;12.67;12.67;;;;;15.81;63.60;101082.44;5056154;28;45482;-59
2022/10/13 05:33:54;;;;;;;;;15.00;15.00;;;;;15.79;63.40;101084.31;5056277;28;45783;-59
2022/10/13 05:36:26;;;;;;;;;13.33;13.33;;;;;15.78;63.17;101065.84;5056109;28;45446;-59
2022/10/13 05:38:56;;;;;;;;;14.33;14.33;;;;;15.78;63.57;101071.13;5056008;28;45405;-59
2022/10/13 05:41:23;;;;;;;;;13.33;13.33;;;;;15.76;63.42;101076.50;5056356;28;45466;-59
2022/10/13 05:43:52;;;;;;;;;14.00;14.00;;;;;15.75;64.23;101066.84;5056130;28;45605;-60
2022/10/13 05:46:17;;;;;;;;;12.00;12.00;;;;;15.77;62.82;101062.31;5055863;28;46408;-59
2022/10/13 05:48:42;;;;;;;;;13.33;13.33;;;;;15.79;63.60;101057.78;5055728;28;45486;-59
2022/10/13 05:51:26;;;;;;;;;12.00;12.00;;;;;15.79;63.60;101059.56;5055743;28;47776;-59
2022/10/13 05:53:59;;;;;;;;;12.67;11.00;;;;;15.77;63.02;101041.13;5056445;28;45521;-59
2022/10/13 05:56:29;;;;;;;;;17.67;15.67;;;;;15.78;63.79;101047.28;5055710;28;45559;-59
2022/10/13 05:59:00;;;;;;;;;20.00;16.33;;;;;15.79;63.99;101049.81;5055788;28;45505;-59
2022/10/13 06:01:29;;;;;;;;;15.67;13.00;;;;;15.81;62.49;101058.56;5055852;28;45539;-60
2022/10/13 06:04:00;;;;;;;;;15.67;14.00;;;;;15.74;63.31;101051.84;5055799;28;45360;-61
2022/10/13 06:06:25;;;;;;;;;17.33;15.33;;;;;15.76;63.59;101063.25;5055357;28;46146;-59
2022/10/13 06:08:51;;;;;;;;;15.67;15.67;;;;;15.74;63.45;101075.72;5055575;28;45469;-59
2022/10/13 06:11:16;;;;;;;;;13.67;13.67;;;;;15.71;64.45;101067.06;5055753;28;45434;-59
2022/10/13 06:13:42;;;;;;;;;12.67;12.00;;;;;15.68;64.31;101071.56;5055616;28;45530;-59
2022/10/13 06:16:07;;;;;;;;;16.67;13.00;;;;;15.71;64.11;101072.34;5055347;28;46131;-59
2022/10/13 06:18:32;;;;;;;;;15.00;11.67;;;;;15.73;63.98;101071.34;5055041;28;45460;-59
2022/10/13 06:20:58;;;;;;;;;14.67;13.33;;;;;15.72;64.55;101069.66;5055127;28;45502;-60
2022/10/13 06:23:23;;;;;;;;;13.67;13.67;;;;;15.75;63.59;101076.59;5055074;28;45490;-59
2022/10/13 06:25:50;;;;;;;;;13.67;13.67;;;;;15.74;64.10;101072.22;5055041;28;46378;-59
2022/10/13 06:28:17;;;;;;;;;15.33;14.00;;;;;15.69;64.08;101072.47;5054749;28;45499;-61
2022/10/13 06:30:46;;;;;;;;;9.67;9.67;;;;;15.72;63.76;101072.31;5055348;28;45367;-60
2022/10/13 06:33:12;;;;;;;;;15.00;11.67;;;;;15.71;63.50;101059.94;5055242;28;45449;-59
2022/10/13 06:35:38;;;;;;;;;11.67;11.67;;;;;15.72;62.56;101066.16;5057314;28;46242;-59
2022/10/13 06:38:03;;;;;;;;;15.00;13.67;;;;;15.74;63.63;101058.94;5058697;28;45392;-60
2022/10/13 06:40:28;;;;;;;;;10.33;10.33;;;;;15.73;62.42;101057.25;5058776;28;45456;-59
2022/10/13 06:42:54;;;;;;;;;10.67;9.33;;;;;15.72;63.68;101056.38;5040823;28;45660;-59
2022/10/13 06:45:19;;;;;;;;;9.00;9.00;;;;;15.75;63.40;101060.69;5040625;28;45970;-59
2022/10/13 06:47:45;;;;;;;;;12.00;12.00;;;;;15.75;63.42;101055.38;5058952;28;45513;-59
2022/10/13 06:50:10;;;;;;;;;14.00;12.00;;;;;15.74;63.59;101059.78;5058976;28;45393;-60
2022/10/13 06:52:36;;;;;;;;;11.67;11.67;;;;;15.74;62.91;101066.91;5059089;28;45456;-59
2022/10/13 06:55:02;;;;;;;;;13.67;13.00;;;;;15.72;63.16;101066.16;5058283;28;46407;-60
2022/10/13 06:57:27;;;;;;;;;13.33;11.67;;;;;15.74;62.77;101069.56;5058651;28;45451;-60
2022/10/13 06:59:53;;;;;;;;;14.33;13.33;;;;;15.75;62.85;101073.94;5058598;28;45456;-60
2022/10/13 07:02:18;;;;;;;;;17.67;13.67;;;;;15.77;62.77;101075.59;5058831;28;45351;-60
2022/10/13 07:04:43;;;;;;;;;14.33;12.33;;;;;15.75;62.91;101077.44;5058343;28;45584;-60
2022/10/13 07:07:09;;;;;;;;;16.67;15.00;;;;;15.68;62.95;101087.47;5058398;28;45411;-59
2022/10/13 07:09:34;;;;;;;;;12.33;12.00;;;;;15.72;62.65;101082.06;5058425;28;45431;-60
2022/10/13 07:11:59;;;;;;;;;9.67;9.67;;;;;15.74;62.25;101085.47;5058639;28;45624;-59
2022/10/13 07:14:25;;;;;;;;;13.67;12.00;;;;;15.72;62.97;101079.41;5058046;28;46887;-59
2022/10/13 07:16:50;;;;;;;;;12.67;11.67;;;;;15.73;63.14;101078.47;5058190;28;45454;-60
2022/10/13 07:19:15;;;;;;;;;10.67;9.67;;;;;15.69;62.52;101075.09;5058042;28;45762;-61
2022/10/13 07:21:41;;;;;;;;;8.67;8.00;;;;;15.71;63.51;101088.28;5057855;28;45550;-61
2022/10/13 07:24:06;;;;;;;;;10.00;10.00;;;;;15.75;62.78;101103.13;5057959;28;46224;-59
2022/10/13 07:26:32;;;;;;;;;8.00;7.00;;;;;15.72;62.73;101090.88;5057941;28;45502;-59
2022/10/13 07:28:58;;;;;;;;;9.00;9.00;;;;;15.72;63.03;101098.81;5040137;28;45438;-59
2022/10/13 07:31:24;;;;;;;;;7.00;7.00;;;;;15.70;62.95;101089.22;5058162;28;45528;-59
2022/10/13 07:33:50;;;;;;;;;8.00;8.00;;;;;15.68;63.00;101081.28;5057700;28;45914;-59
2022/10/13 07:36:17;;;;;;;;;10.00;9.00;;;;;15.67;63.18;101082.25;5058036;28;45399;-59
2022/10/13 07:38:42;;;;;;;;;9.00;9.00;;;;;15.67;62.41;101074.28;5057897;28;45432;-60
2022/10/13 07:41:09;;;;;;;;;8.00;8.00;;;;;15.66;63.16;101076.09;5057685;28;45378;-59
2022/10/13 07:43:35;;;;;;;;;9.00;9.00;;;;;15.62;63.30;101082.44;5056791;28;46343;-61
2022/10/13 07:46:03;;;;;;;;;9.33;9.33;;;;;15.64;63.67;101079.75;5056829;28;45677;-59
2022/10/13 07:48:29;;;;;;;;;10.33;9.00;;;;;15.64;62.87;101090.34;5057886;28;45419;-60
2022/10/13 07:50:54;;;;;;;;;9.67;7.00;;;;;15.62;62.81;101098.38;5057642;28;45577;-59
2022/10/13 07:53:20;;;;;;;;;7.00;7.00;;;;;15.60;62.81;101100.22;5058011;28;46118;-59
2022/10/13 07:55:45;;;;;;;;;12.00;10.00;;;;;15.63;63.51;101096.56;5057228;28;45446;-59
2022/10/13 07:58:10;;;;;;;;;11.00;10.67;;;;;15.62;63.31;101098.38;5057483;28;45504;-59
2022/10/13 08:00:36;;;;;;;;;14.00;12.00;;;;;15.68;63.18;101099.84;5057324;28;45780;-59
2022/10/13 08:03:01;;;;;;;;;10.33;9.33;;;;;15.72;62.51;101105.91;5057323;28;46606;-59
2022/10/13 08:05:26;;;;;;;;;8.00;8.00;;;;;15.74;62.77;101104.03;5057365;28;45404;-59
2022/10/13 08:07:52;;;;;;;;;8.00;8.00;;;;;15.72;62.21;101104.13;5057379;28;45418;-59
2022/10/13 08:10:17;;;;;;;;;7.67;6.00;;;;;15.69;62.79;101112.22;5057647;28;45442;-60
2022/10/13 08:12:43;;;;;;;;;9.00;6.67;;;;;15.72;62.44;101117.38;5057141;28;45434;-59
2022/10/13 08:15:08;;;;;;;;;7.67;7.67;;;;;15.69;62.80;101122.84;5055661;28;46134;-59
2022/10/13 08:17:34;;;;;;;;;8.00;7.00;;;;;15.72;62.83;101122.69;5057107;28;45461;-59
2022/10/13 08:19:59;;;;;;;;;11.00;9.00;;;;;15.75;62.30;101130.50;5057185;28;45423;-59
2022/10/13 08:22:26;;;;;;;;;8.33;7.00;;;;;15.71;62.52;101120.94;5056958;28;47418;-59
2022/10/13 08:24:51;;;;;;;;;9.67;8.00;;;;;15.72;62.32;101119.19;5057180;28;45454;-59
2022/10/13 08:27:23;;;;;;;;;9.33;9.33;;;;;15.71;62.22;101105.03;5039039;28;45480;-59
2022/10/13 08:29:49;;;;;;;;;10.00;8.00;;;;;15.74;62.92;101107.53;5057223;28;45630;-59
2022/10/13 08:32:15;;;;;;;;;9.67;7.00;;;;;15.74;63.46;101096.94;5038110;28;46389;-60
2022/10/13 08:34:40;;;;;;;;;5.67;5.67;;;;;15.68;62.58;101105.16;5057334;28;45678;-59
2022/10/13 08:37:12;;;;;;;;;6.33;6.33;;;;;15.70;63.09;101113.94;5057033;28;45542;-59
2022/10/13 08:39:37;;;;;;;;;8.00;8.00;;;;;15.75;62.94;101114.56;5057294;28;45443;-59
2022/10/13 08:42:13;;;;;;;;;7.00;7.00;;;;;15.75;62.38;101111.94;5056731;28;45416;-60
2022/10/13 08:44:43;;;;;;;;;7.67;6.67;;;;;15.78;62.36;101108.25;5056835;28;45380;-59
2022/10/13 08:47:19;;;;;;;;;8.67;7.33;;;;;15.77;62.24;101115.38;5056809;28;45603;-59
2022/10/13 08:49:45;;;;;;;;;5.00;5.00;;;;;15.80;62.42;101111.72;5056856;28;45442;-59
2022/10/13 08:52:23;;;;;;;;;7.00;7.00;;;;;15.82;62.82;101108.03;5056874;28;46127;-59
2022/10/13 08:54:49;;;;;;;;;8.67;6.00;;;;;15.83;62.91;101108.91;5056730;28;45493;-59
2022/10/13 08:57:14;;;;;;;;;8.00;5.33;;;;;15.79;61.87;101113.47;5056557;28;45450;-59
2022/10/13 08:59:40;;;;;;;;;6.00;5.33;;;;;15.82;62.43;101112.47;5056525;28;45578;-59
2022/10/13 09:02:13;;;;;;;;;6.00;6.00;;;;;15.85;62.80;101117.63;5056867;28;45347;-59
2022/10/13 09:04:42;;;;;;;;;7.00;7.00;;;;;15.88;62.62;101110.38;5056814;28;45529;-60
2022/10/13 09:07:07;;;;;;;;;6.67;6.00;;;;;15.93;62.14;101104.84;5056780;28;45485;-60
2022/10/13 09:09:32;;;;;;;;;7.67;6.67;;;;;15.93;62.35;101107.50;5056545;28;45457;-60
2022/10/13 09:11:58;;;;;;;;;7.00;6.33;;;;;15.93;61.69;101109.28;5056651;28;45673;-60
2022/10/13 09:14:32;;;;;;;;;5.00;5.00;;;;;15.93;61.63;101107.50;5056398;28;45493;-60
2022/10/13 09:17:12;;;;;;;;;5.33;5.33;;;;;15.99;62.37;101107.22;5038361;28;45445;-59
2022/10/13 09:19:39;;;;;;;;;5.00;5.00;;;;;16.03;62.15;101111.41;5056313;28;45515;-59
2022/10/13 09:22:22;;;;;;;;;4.33;4.33;;;;;15.99;61.82;101114.31;5056277;28;45344;-59
2022/10/13 09:25:14;;;;;;;;;5.00;5.00;;;;;16.00;62.32;101110.72;5055260;28;45376;-59
2022/10/13 09:27:47;;;;;;;;;5.67;4.33;;;;;15.99;62.72;101114.31;5056078;28;45518;-59
2022/10/13 09:30:33;;;;;;;;;6.33;6.33;;;;;15.99;62.60;101109.84;5056234;28;45499;-59
2022/10/13 09:33:07;;;;;;;;;11.33;8.33;;;;;16.06;61.93;101108.59;5055762;28;45434;-59
2022/10/13 09:35:39;;;;;;;;;8.00;7.00;;;;;16.06;62.93;101100.63;5055914;28;45638;-59
2022/10/13 09:38:06;;;;;;;;;9.00;7.00;;;;;16.08;62.14;101095.25;5037941;28;45441;-58
2022/10/13 09:40:32;;;;;;;;;7.00;6.00;;;;;16.07;62.07;101093.56;5056015;28;45473;-59
2022/10/13 09:43:01;;;;;;;;;8.00;8.00;;;;;16.11;62.72;101095.09;5055762;28;45506;-59
2022/10/13 09:45:28;;;;;;;;;7.00;7.00;;;;;16.10;62.26;101093.41;5055787;28;45402;-60
2022/10/13 09:48:01;;;;;;;;;4.00;4.00;;;;;16.11;62.33;101089.81;5056143;28;45373;-60
2022/10/13 09:50:30;;;;;;;;;5.67;5.67;;;;;16.11;63.29;101088.00;5055909;28;45394;-60
2022/10/13 09:53:19;;;;;;;;;8.00;8.00;;;;;16.15;63.45;101098.44;5037841;28;46347;-60
2022/10/13 09:55:47;;;;;;;;;6.00;6.00;;;;;16.20;62.98;101101.75;5042631;28;45548;-60
2022/10/13 09:58:25;;;;;;;;;6.33;4.67;;;;;16.21;63.36;101096.38;5055591;28;45435;-59
2022/10/13 10:00:52;;;;;;;;;8.00;8.00;;;;;16.18;63.43;101112.44;5055789;28;45444;-59
2022/10/13 10:03:34;;;;;;;;;8.00;7.00;;;;;16.17;63.43;101115.16;5055430;28;46446;-59
2022/10/13 10:06:11;;;;;;;;;9.00;9.00;;;;;16.18;63.20;101108.94;5055556;28;45532;-60
2022/10/13 10:09:11;;;;;;;;;7.00;7.00;;;;;16.18;62.96;101107.13;5055658;28;45501;-60
2022/10/13 10:11:46;;;;;;;;;4.67;4.00;;;;;16.18;63.23;101099.19;5062368;28;45357;-60
2022/10/13 10:14:26;;;;;;;;;6.00;6.00;;;;;16.19;63.86;101097.38;5061750;28;45509;-60
2022/10/13 10:17:06;;;;;;;;;8.33;8.00;;;;;16.18;63.65;101095.69;5062008;28;45496;-59
2022/10/13 10:20:05;;;;;;;;;5.67;5.67;;;;;16.18;64.46;101106.28;5062094;28;45389;-58
2022/10/13 10:22:49;;;;;;;;;9.33;8.33;;;;;16.19;63.45;101105.34;5061990;28;45397;-59
2022/10/13 10:25:24;;;;;;;;;7.00;6.67;;;;;16.20;62.75;101104.38;5062031;28;45482;-60
2022/10/13 10:28:01;;;;;;;;;6.33;6.33;;;;;16.17;64.58;101100.09;5062134;28;45382;-59
2022/10/13 10:30:29;;;;;;;;;5.00;5.00;;;;;16.18;64.54;101103.63;5054354;28;45565;-60
2022/10/13 10:33:03;;;;;;;;;9.00;9.00;;;;;16.23;64.21;101093.66;5061969;28;45575;-60
2022/10/13 10:35:48;;;;;;;;;8.33;6.00;;;;;16.26;63.79;101093.47;5053985;28;46244;-60
2022/10/13 10:38:29;;;;;;;;;10.00;9.00;;;;;16.28;64.18;101096.91;5061832;28;45488;-59
2022/10/13 10:40:58;;;;;;;;;6.67;6.67;;;;;16.31;63.92;101087.00;5061751;28;45365;-60
2022/10/13 10:43:41;;;;;;;;;8.00;8.00;;;;;16.33;63.90;101085.13;5061708;28;45519;-60
2022/10/13 10:46:16;;;;;;;;;9.00;8.00;;;;;16.36;64.09;101081.44;5061254;28;46384;-59
2022/10/13 10:48:45;;;;;;;;;7.67;6.67;;;;;16.38;64.24;101076.06;5060819;28;45573;-60
2022/10/13 10:51:13;;;;;;;;;15.00;15.00;;;;;16.39;63.89;101072.44;5061733;28;45420;-60
2022/10/13 10:53:59;;;;;;;;;10.00;10.00;;;;;16.39;64.43;101078.66;5061765;28;45531;-59
2022/10/13 10:56:58;;;;;;;;;9.67;8.00;;;;;16.38;64.03;101076.91;5053013;28;46186;-60
2022/10/13 10:59:39;;;;;;;;;14.00;14.00;;;;;16.38;64.67;101076.91;5060501;28;45422;-58
2022/10/13 11:02:07;;;;;;;;;7.00;7.00;;;;;16.35;64.12;101080.56;5061423;28;45468;-60
2022/10/13 11:04:45;;;;;;;;;8.00;7.00;;;;;16.34;64.52;101075.38;5061510;28;45448;-60
2022/10/13 11:07:32;;;;;;;;;8.00;8.00;;;;;16.37;64.03;101069.91;5043120;28;46177;-60
2022/10/13 11:10:12;;;;;;;;;11.00;9.00;;;;;16.35;63.89;101066.44;5061162;28;45422;-60
2022/10/13 11:12:45;;;;;;;;;9.00;8.00;;;;;16.33;63.52;101055.03;5061518;28;45488;-58
2022/10/13 11:15:14;;;;;;;;;11.00;8.00;;;;;16.38;64.19;101063.63;5061157;28;45466;-60
2022/10/13 11:17:40;;;;;;;;;11.33;9.00;;;;;16.36;64.54;101060.19;5060929;28;47215;-60
2022/10/13 11:20:21;;;;;;;;;10.00;10.00;;;;;16.40;63.55;101060.91;5060603;28;45442;-60
2022/10/13 11:22:58;;;;;;;;;11.00;10.67;;;;;16.40;64.47;101056.47;5058089;28;45477;-59
2022/10/13 11:25:39;;;;;;;;;16.33;16.00;;;;;16.45;64.78;101056.22;5057852;28;45501;-60